TimePDT,TemperatureF,Dew PointF,Humidity,Sea Level PressureIn,VisibilityMPH,Wind Direction,Wind SpeedMPH,Gust SpeedMPH,PrecipitationIn,Events,Conditions,WindDirDegrees,DateUTC
12:53 AM,70.0,55.0,59,29.87,10.0,North,5.8,-,N/A,,Clear,350,2013-08-15 07:53:00
1:53 AM,70.0,55.0,59,29.86,10.0,NNW,6.9,-,N/A,,Clear,340,2013-08-15 08:53:00
2:53 AM,68.0,55.9,65,29.86,10.0,NNW,4.6,-,N/A,,Clear,340,2013-08-15 09:53:00
3:53 AM,68.0,57.0,68,29.87,10.0,NNW,5.8,-,N/A,,Clear,340,2013-08-15 10:53:00
4:53 AM,68.0,57.0,68,29.87,10.0,North,5.8,-,N/A,,Clear,350,2013-08-15 11:53:00
5:53 AM,66.0,57.0,73,29.88,10.0,NNW,5.8,-,N/A,,Clear,330,2013-08-15 12:53:00
6:53 AM,66.0,57.9,75,29.90,10.0,North,4.6,-,N/A,,Clear,350,2013-08-15 13:53:00
7:53 AM,70.0,57.9,65,29.91,10.0,North,6.9,-,N/A,,Clear,360,2013-08-15 14:53:00
8:53 AM,73.9,57.9,57,29.92,10.0,NNW,5.8,-,N/A,,Clear,340,2013-08-15 15:53:00
9:53 AM,78.1,57.9,50,29.93,10.0,North,4.6,-,N/A,,Clear,350,2013-08-15 16:53:00
10:53 AM,82.0,57.0,42,29.92,10.0,Variable,4.6,-,N/A,,Clear,0,2013-08-15 17:53:00
11:53 AM,86.0,55.9,36,29.91,10.0,Variable,5.8,-,N/A,,Clear,0,2013-08-15 18:53:00
12:53 PM,89.1,55.0,31,29.90,10.0,NNW,8.1,-,N/A,,Clear,340,2013-08-15 19:53:00
1:53 PM,93.0,57.9,31,29.89,10.0,Variable,5.8,-,N/A,,Clear,0,2013-08-15 20:53:00
2:53 PM,95.0,57.0,28,29.87,10.0,NW,8.1,-,N/A,,Clear,320,2013-08-15 21:53:00
3:53 PM,95.0,55.9,27,29.86,10.0,NNW,12.7,17.3,N/A,,Clear,340,2013-08-15 22:53:00
4:53 PM,95.0,57.9,29,29.85,10.0,NNW,11.5,-,N/A,,Clear,340,2013-08-15 23:53:00
5:53 PM,93.9,57.9,30,29.85,10.0,NNW,11.5,-,N/A,,Clear,330,2013-08-16 00:53:00
6:53 PM,91.9,60.1,34,29.84,10.0,NNW,11.5,-,N/A,,Clear,340,2013-08-16 01:53:00
7:53 PM,87.1,57.9,37,29.86,10.0,NW,10.4,-,N/A,,Clear,320,2013-08-16 02:53:00
8:53 PM,82.9,57.9,42,29.87,10.0,NW,10.4,-,N/A,,Clear,320,2013-08-16 03:53:00
10:53 PM,78.1,59.0,52,29.90,10.0,North,10.4,-,N/A,,Clear,350,2013-08-16 05:53:00
11:53 PM,75.0,60.1,60,29.91,10.0,North,9.2,-,N/A,,Clear,350,2013-08-16 06:53:00